sensor_id;sensor_type;location;lat;lon;timestamp;P1;durP1;ratioP1;P2;durP2;ratioP2
5117;SDS011;2578;51.622;7.046;2023-09-18T00:00:46;10.00;;;9.10;;
5117;SDS011;2578;51.622;7.046;2023-09-18T00:03:19;10.50;;;9.50;;
5117;SDS011;2578;51.622;7.046;2023-09-18T00:05:47;10.47;;;9.50;;
5117;SDS011;2578;51.622;7.046;2023-09-18T00:08:13;12.10;;;11.00;;
5117;SDS011;2578;51.622;7.046;2023-09-18T00:10:39;10.70;;;9.70;;
5117;SDS011;2578;51.622;7.046;2023-09-18T00:13:05;10.80;;;9.80;;
5117;SDS011;2578;51.622;7.046;2023-09-18T00:15:31;11.00;;;10.00;;
5117;SDS011;2578;51.622;7.046;2023-09-18T00:17:56;10.80;;;9.80;;
5117;SDS011;2578;51.622;7.046;2023-09-18T00:20:22;10.90;;;9.90;;
5117;SDS011;2578;51.622;7.046;2023-09-18T00:22:54;11.17;;;10.17;;
5117;SDS011;2578;51.622;7.046;2023-09-18T00:25:20;11.10;;;10.10;;
5117;SDS011;2578;51.622;7.046;2023-09-18T00:27:49;11.23;;;10.23;;
5117;SDS011;2578;51.622;7.046;2023-09-18T00:30:16;10.90;;;9.90;;
5117;SDS011;2578;51.622;7.046;2023-09-18T00:32:42;12.50;;;11.40;;
5117;SDS011;2578;51.622;7.046;2023-09-18T00:35:08;10.73;;;9.73;;
5117;SDS011;2578;51.622;7.046;2023-09-18T00:37:33;10.60;;;9.60;;
5117;SDS011;2578;51.622;7.046;2023-09-18T00:39:59;10.50;;;9.50;;
5117;SDS011;2578;51.622;7.046;2023-09-18T00:42:26;10.20;;;9.30;;
5117;SDS011;2578;51.622;7.046;2023-09-18T00:44:51;9.93;;;9.03;;
5117;SDS011;2578;51.622;7.046;2023-09-18T00:47:17;10.00;;;9.10;;
5117;SDS011;2578;51.622;7.046;2023-09-18T00:49:44;10.30;;;9.40;;
5117;SDS011;2578;51.622;7.046;2023-09-18T00:52:12;11.40;;;10.40;;
5117;SDS011;2578;51.622;7.046;2023-09-18T00:54:40;11.40;;;10.40;;
5117;SDS011;2578;51.622;7.046;2023-09-18T00:57:06;13.00;;;11.90;;
5117;SDS011;2578;51.622;7.046;2023-09-18T00:59:34;12.57;;;11.47;;
5117;SDS011;2578;51.622;7.046;2023-09-18T01:01:59;12.80;;;11.70;;
5117;SDS011;2578;51.622;7.046;2023-09-18T01:04:25;15.43;;;13.83;;
5117;SDS011;2578;51.622;7.046;2023-09-18T01:06:53;13.10;;;12.00;;
5117;SDS011;2578;51.622;7.046;2023-09-18T01:09:21;13.70;;;12.50;;
5117;SDS011;2578;51.622;7.046;2023-09-18T01:17:14;13.40;;;12.30;;
5117;SDS011;2578;51.622;7.046;2023-09-18T01:19:45;13.90;;;12.80;;
5117;SDS011;2578;51.622;7.046;2023-09-18T01:22:12;14.53;;;13.33;;
5117;SDS011;2578;51.622;7.046;2023-09-18T01:24:40;15.00;;;13.60;;
5117;SDS011;2578;51.622;7.046;2023-09-18T01:27:14;13.70;;;12.60;;
5117;SDS011;2578;51.622;7.046;2023-09-18T01:29:42;19.13;;;14.03;;
5117;SDS011;2578;51.622;7.046;2023-09-18T01:32:08;15.07;;;13.70;;
5117;SDS011;2578;51.622;7.046;2023-09-18T01:34:38;15.30;;;14.00;;
5117;SDS011;2578;51.622;7.046;2023-09-18T01:37:11;13.93;;;12.73;;
5117;SDS011;2578;51.622;7.046;2023-09-18T01:39:39;13.63;;;12.53;;
5117;SDS011;2578;51.622;7.046;2023-09-18T01:42:05;13.27;;;12.17;;
5117;SDS011;2578;51.622;7.046;2023-09-18T01:44:32;13.80;;;12.60;;
5117;SDS011;2578;51.622;7.046;2023-09-18T01:46:58;13.20;;;12.10;;
5117;SDS011;2578;51.622;7.046;2023-09-18T01:49:31;13.43;;;12.13;;
5117;SDS011;2578;51.622;7.046;2023-09-18T01:51:59;14.30;;;13.00;;
5117;SDS011;2578;51.622;7.046;2023-09-18T01:54:25;12.60;;;11.50;;
5117;SDS011;2578;51.622;7.046;2023-09-18T01:56:50;13.63;;;12.30;;
5117;SDS011;2578;51.622;7.046;2023-09-18T01:59:17;12.23;;;11.13;;
5117;SDS011;2578;51.622;7.046;2023-09-18T02:01:43;12.93;;;11.83;;
5117;SDS011;2578;51.622;7.046;2023-09-18T02:04:09;13.77;;;12.67;;
5117;SDS011;2578;51.622;7.046;2023-09-18T02:06:35;12.90;;;11.90;;
5117;SDS011;2578;51.622;7.046;2023-09-18T02:09:01;13.20;;;12.10;;
5117;SDS011;2578;51.622;7.046;2023-09-18T02:11:27;14.00;;;12.80;;
5117;SDS011;2578;51.622;7.046;2023-09-18T02:13:52;13.63;;;12.53;;
5117;SDS011;2578;51.622;7.046;2023-09-18T02:16:18;13.90;;;12.80;;
5117;SDS011;2578;51.622;7.046;2023-09-18T02:18:47;13.60;;;12.50;;
5117;SDS011;2578;51.622;7.046;2023-09-18T02:21:19;14.97;;;13.63;;
5117;SDS011;2578;51.622;7.046;2023-09-18T02:23:48;13.30;;;12.20;;
5117;SDS011;2578;51.622;7.046;2023-09-18T02:26:17;15.67;;;14.37;;
5117;SDS011;2578;51.622;7.046;2023-09-18T02:28:44;13.43;;;12.33;;
5117;SDS011;2578;51.622;7.046;2023-09-18T02:31:09;13.70;;;12.50;;
5117;SDS011;2578;51.622;7.046;2023-09-18T02:33:36;13.60;;;12.50;;
5117;SDS011;2578;51.622;7.046;2023-09-18T02:36:02;13.57;;;12.47;;
5117;SDS011;2578;51.622;7.046;2023-09-18T02:38:28;13.50;;;12.40;;
5117;SDS011;2578;51.622;7.046;2023-09-18T02:40:55;15.17;;;13.53;;
5117;SDS011;2578;51.622;7.046;2023-09-18T02:43:22;13.80;;;12.70;;
5117;SDS011;2578;51.622;7.046;2023-09-18T02:45:48;14.30;;;13.20;;
5117;SDS011;2578;51.622;7.046;2023-09-18T02:48:16;13.63;;;12.53;;
5117;SDS011;2578;51.622;7.046;2023-09-18T02:50:42;13.80;;;12.70;;
5117;SDS011;2578;51.622;7.046;2023-09-18T02:53:16;14.30;;;13.20;;
5117;SDS011;2578;51.622;7.046;2023-09-18T02:55:44;14.40;;;13.30;;
5117;SDS011;2578;51.622;7.046;2023-09-18T02:58:11;15.00;;;13.80;;
5117;SDS011;2578;51.622;7.046;2023-09-18T03:00:43;15.30;;;14.10;;
5117;SDS011;2578;51.622;7.046;2023-09-18T03:03:09;15.70;;;14.50;;
5117;SDS011;2578;51.622;7.046;2023-09-18T03:05:35;15.60;;;14.40;;
5117;SDS011;2578;51.622;7.046;2023-09-18T03:08:02;16.17;;;14.97;;
5117;SDS011;2578;51.622;7.046;2023-09-18T03:10:28;16.20;;;15.00;;
5117;SDS011;2578;51.622;7.046;2023-09-18T03:12:57;16.07;;;14.87;;
5117;SDS011;2578;51.622;7.046;2023-09-18T03:15:22;16.30;;;15.10;;
5117;SDS011;2578;51.622;7.046;2023-09-18T03:17:50;16.43;;;15.20;;
5117;SDS011;2578;51.622;7.046;2023-09-18T03:20:16;16.80;;;15.50;;
5117;SDS011;2578;51.622;7.046;2023-09-18T03:22:41;14.93;;;13.73;;
5117;SDS011;2578;51.622;7.046;2023-09-18T03:25:07;13.90;;;12.80;;
5117;SDS011;2578;51.622;7.046;2023-09-18T03:27:33;13.70;;;12.60;;
5117;SDS011;2578;51.622;7.046;2023-09-18T03:29:58;13.87;;;12.77;;
5117;SDS011;2578;51.622;7.046;2023-09-18T03:32:24;14.70;;;13.50;;
5117;SDS011;2578;51.622;7.046;2023-09-18T03:34:50;15.10;;;13.87;;
5117;SDS011;2578;51.622;7.046;2023-09-18T03:37:16;14.10;;;13.00;;
5117;SDS011;2578;51.622;7.046;2023-09-18T03:39:42;15.63;;;14.43;;
5117;SDS011;2578;51.622;7.046;2023-09-18T03:42:07;14.20;;;13.10;;
5117;SDS011;2578;51.622;7.046;2023-09-18T03:44:33;13.90;;;12.80;;
5117;SDS011;2578;51.622;7.046;2023-09-18T03:46:58;13.20;;;12.10;;
5117;SDS011;2578;51.622;7.046;2023-09-18T03:49:24;12.07;;;11.07;;
5117;SDS011;2578;51.622;7.046;2023-09-18T03:51:49;12.33;;;11.00;;
5117;SDS011;2578;51.622;7.046;2023-09-18T03:54:15;12.10;;;10.90;;
5117;SDS011;2578;51.622;7.046;2023-09-18T03:56:41;11.63;;;10.53;;
5117;SDS011;2578;51.622;7.046;2023-09-18T03:59:06;9.70;;;8.70;;
5117;SDS011;2578;51.622;7.046;2023-09-18T04:01:32;9.80;;;8.80;;
5117;SDS011;2578;51.622;7.046;2023-09-18T04:03:57;9.97;;;9.07;;
5117;SDS011;2578;51.622;7.046;2023-09-18T04:06:23;9.90;;;9.00;;
5117;SDS011;2578;51.622;7.046;2023-09-18T04:08:51;9.83;;;8.93;;
5117;SDS011;2578;51.622;7.046;2023-09-18T04:11:17;9.90;;;9.00;;
5117;SDS011;2578;51.622;7.046;2023-09-18T04:13:50;10.60;;;9.60;;
5117;SDS011;2578;51.622;7.046;2023-09-18T04:16:15;10.30;;;9.40;;
5117;SDS011;2578;51.622;7.046;2023-09-18T04:18:42;11.17;;;10.17;;
5117;SDS011;2578;51.622;7.046;2023-09-18T04:21:08;9.80;;;8.90;;
5117;SDS011;2578;51.622;7.046;2023-09-18T04:23:35;10.20;;;9.30;;
5117;SDS011;2578;51.622;7.046;2023-09-18T04:26:01;10.30;;;9.40;;
5117;SDS011;2578;51.622;7.046;2023-09-18T04:28:27;10.40;;;9.50;;
5117;SDS011;2578;51.622;7.046;2023-09-18T04:30:53;10.77;;;9.77;;
5117;SDS011;2578;51.622;7.046;2023-09-18T04:33:18;10.30;;;9.40;;
5117;SDS011;2578;51.622;7.046;2023-09-18T04:35:46;19.07;;;11.50;;
5117;SDS011;2578;51.622;7.046;2023-09-18T04:38:12;10.50;;;9.50;;
5117;SDS011;2578;51.622;7.046;2023-09-18T04:40:40;10.30;;;9.40;;
5117;SDS011;2578;51.622;7.046;2023-09-18T04:43:06;10.30;;;9.40;;
5117;SDS011;2578;51.622;7.046;2023-09-18T04:45:31;11.37;;;9.37;;
5117;SDS011;2578;51.622;7.046;2023-09-18T04:47:57;11.13;;;10.13;;
5117;SDS011;2578;51.622;7.046;2023-09-18T04:50:23;10.97;;;9.97;;
5117;SDS011;2578;51.622;7.046;2023-09-18T04:52:51;11.00;;;9.90;;
5117;SDS011;2578;51.622;7.046;2023-09-18T04:55:19;10.50;;;9.60;;
5117;SDS011;2578;51.622;7.046;2023-09-18T04:57:45;12.60;;;11.50;;
5117;SDS011;2578;51.622;7.046;2023-09-18T05:00:10;11.10;;;10.10;;
5117;SDS011;2578;51.622;7.046;2023-09-18T05:02:37;9.90;;;8.90;;
5117;SDS011;2578;51.622;7.046;2023-09-18T05:05:03;10.10;;;9.20;;
5117;SDS011;2578;51.622;7.046;2023-09-18T05:07:29;10.70;;;9.80;;
5117;SDS011;2578;51.622;7.046;2023-09-18T05:09:56;10.20;;;9.30;;
5117;SDS011;2578;51.622;7.046;2023-09-18T05:12:21;20.37;;;18.47;;
5117;SDS011;2578;51.622;7.046;2023-09-18T05:14:48;11.60;;;10.60;;
5117;SDS011;2578;51.622;7.046;2023-09-18T05:17:14;10.90;;;9.90;;
5117;SDS011;2578;51.622;7.046;2023-09-18T05:19:41;10.13;;;9.23;;
5117;SDS011;2578;51.622;7.046;2023-09-18T05:22:08;13.30;;;10.60;;
5117;SDS011;2578;51.622;7.046;2023-09-18T05:24:35;11.00;;;9.30;;
5117;SDS011;2578;51.622;7.046;2023-09-18T05:27:03;10.77;;;9.77;;
5117;SDS011;2578;51.622;7.046;2023-09-18T05:29:31;12.93;;;11.60;;
5117;SDS011;2578;51.622;7.046;2023-09-18T05:31:56;10.00;;;9.00;;
5117;SDS011;2578;51.622;7.046;2023-09-18T05:34:22;9.20;;;8.30;;
5117;SDS011;2578;51.622;7.046;2023-09-18T05:36:48;45.33;;;9.60;;
5117;SDS011;2578;51.622;7.046;2023-09-18T05:39:14;9.00;;;8.10;;
5117;SDS011;2578;51.622;7.046;2023-09-18T05:41:39;8.90;;;8.07;;
5117;SDS011;2578;51.622;7.046;2023-09-18T05:44:05;9.20;;;8.33;;
5117;SDS011;2578;51.622;7.046;2023-09-18T05:46:33;8.90;;;8.10;;
5117;SDS011;2578;51.622;7.046;2023-09-18T05:49:00;9.13;;;8.23;;
5117;SDS011;2578;51.622;7.046;2023-09-18T05:51:26;9.87;;;8.87;;
5117;SDS011;2578;51.622;7.046;2023-09-18T05:53:52;8.43;;;7.63;;
5117;SDS011;2578;51.622;7.046;2023-09-18T05:56:17;9.30;;;8.40;;
5117;SDS011;2578;51.622;7.046;2023-09-18T05:58:43;9.20;;;8.30;;
5117;SDS011;2578;51.622;7.046;2023-09-18T06:01:09;8.60;;;7.80;;
5117;SDS011;2578;51.622;7.046;2023-09-18T06:03:35;8.00;;;7.20;;
5117;SDS011;2578;51.622;7.046;2023-09-18T06:06:01;8.63;;;7.73;;
5117;SDS011;2578;51.622;7.046;2023-09-18T06:08:28;8.73;;;7.83;;
5117;SDS011;2578;51.622;7.046;2023-09-18T06:10:55;8.40;;;7.60;;
5117;SDS011;2578;51.622;7.046;2023-09-18T06:13:21;8.53;;;7.73;;
5117;SDS011;2578;51.622;7.046;2023-09-18T06:15:47;8.30;;;7.50;;
5117;SDS011;2578;51.622;7.046;2023-09-18T06:18:13;8.60;;;7.80;;
5117;SDS011;2578;51.622;7.046;2023-09-18T06:20:38;8.17;;;7.37;;
5117;SDS011;2578;51.622;7.046;2023-09-18T06:23:06;9.77;;;8.77;;
5117;SDS011;2578;51.622;7.046;2023-09-18T06:25:31;9.60;;;8.70;;
5117;SDS011;2578;51.622;7.046;2023-09-18T06:27:57;14.43;;;9.60;;
5117;SDS011;2578;51.622;7.046;2023-09-18T06:30:23;8.77;;;7.90;;
5117;SDS011;2578;51.622;7.046;2023-09-18T06:32:48;8.20;;;7.40;;
5117;SDS011;2578;51.622;7.046;2023-09-18T06:35:14;9.13;;;8.23;;
5117;SDS011;2578;51.622;7.046;2023-09-18T06:37:40;10.20;;;8.20;;
5117;SDS011;2578;51.622;7.046;2023-09-18T06:40:05;9.87;;;7.67;;
5117;SDS011;2578;51.622;7.046;2023-09-18T06:42:32;8.83;;;7.93;;
5117;SDS011;2578;51.622;7.046;2023-09-18T06:44:57;10.77;;;8.37;;
5117;SDS011;2578;51.622;7.046;2023-09-18T06:47:23;8.77;;;7.90;;
5117;SDS011;2578;51.622;7.046;2023-09-18T06:49:49;7.80;;;7.00;;
5117;SDS011;2578;51.622;7.046;2023-09-18T06:52:16;8.40;;;7.60;;
5117;SDS011;2578;51.622;7.046;2023-09-18T06:54:41;8.67;;;7.80;;
5117;SDS011;2578;51.622;7.046;2023-09-18T06:57:09;8.70;;;7.80;;
5117;SDS011;2578;51.622;7.046;2023-09-18T06:59:35;9.40;;;7.97;;
5117;SDS011;2578;51.622;7.046;2023-09-18T07:02:01;8.00;;;7.20;;
5117;SDS011;2578;51.622;7.046;2023-09-18T07:04:26;12.17;;;7.73;;
5117;SDS011;2578;51.622;7.046;2023-09-18T07:06:52;8.20;;;7.40;;
5117;SDS011;2578;51.622;7.046;2023-09-18T07:09:18;8.00;;;7.20;;
5117;SDS011;2578;51.622;7.046;2023-09-18T07:11:44;8.97;;;8.03;;
5117;SDS011;2578;51.622;7.046;2023-09-18T07:14:10;9.00;;;8.10;;
5117;SDS011;2578;51.622;7.046;2023-09-18T07:16:36;8.80;;;7.90;;
5117;SDS011;2578;51.622;7.046;2023-09-18T07:19:01;8.97;;;8.00;;
5117;SDS011;2578;51.622;7.046;2023-09-18T07:21:29;8.73;;;7.93;;
5117;SDS011;2578;51.622;7.046;2023-09-18T07:23:55;9.00;;;8.10;;
5117;SDS011;2578;51.622;7.046;2023-09-18T07:26:21;8.60;;;7.80;;
5117;SDS011;2578;51.622;7.046;2023-09-18T07:28:47;9.20;;;8.30;;
5117;SDS011;2578;51.622;7.046;2023-09-18T07:31:13;9.00;;;8.10;;
5117;SDS011;2578;51.622;7.046;2023-09-18T07:33:39;8.90;;;8.10;;
5117;SDS011;2578;51.622;7.046;2023-09-18T07:36:05;9.40;;;8.50;;
5117;SDS011;2578;51.622;7.046;2023-09-18T07:38:31;9.60;;;8.60;;
5117;SDS011;2578;51.622;7.046;2023-09-18T07:40:57;9.83;;;8.93;;
5117;SDS011;2578;51.622;7.046;2023-09-18T07:43:23;10.20;;;9.30;;
5117;SDS011;2578;51.622;7.046;2023-09-18T07:45:50;9.60;;;8.70;;
5117;SDS011;2578;51.622;7.046;2023-09-18T07:48:15;10.37;;;9.10;;
5117;SDS011;2578;51.622;7.046;2023-09-18T07:50:45;9.80;;;8.90;;
5117;SDS011;2578;51.622;7.046;2023-09-18T07:53:11;9.60;;;8.70;;
5117;SDS011;2578;51.622;7.046;2023-09-18T07:55:37;9.90;;;9.00;;
5117;SDS011;2578;51.622;7.046;2023-09-18T07:58:03;9.90;;;9.00;;
5117;SDS011;2578;51.622;7.046;2023-09-18T08:00:30;9.70;;;8.80;;
5117;SDS011;2578;51.622;7.046;2023-09-18T08:02:58;11.03;;;9.97;;
5117;SDS011;2578;51.622;7.046;2023-09-18T08:05:26;9.90;;;9.00;;
5117;SDS011;2578;51.622;7.046;2023-09-18T08:07:55;10.77;;;9.63;;
5117;SDS011;2578;51.622;7.046;2023-09-18T08:10:22;11.77;;;9.63;;
5117;SDS011;2578;51.622;7.046;2023-09-18T08:12:51;9.53;;;8.63;;
5117;SDS011;2578;51.622;7.046;2023-09-18T08:15:18;9.50;;;8.60;;
5117;SDS011;2578;51.622;7.046;2023-09-18T08:17:45;10.03;;;9.07;;
5117;SDS011;2578;51.622;7.046;2023-09-18T08:20:11;10.90;;;9.60;;
5117;SDS011;2578;51.622;7.046;2023-09-18T08:22:38;10.73;;;9.83;;
5117;SDS011;2578;51.622;7.046;2023-09-18T08:25:05;17.27;;;10.60;;
5117;SDS011;2578;51.622;7.046;2023-09-18T08:27:35;10.87;;;9.97;;
5117;SDS011;2578;51.622;7.046;2023-09-18T08:30:07;10.73;;;9.83;;
5117;SDS011;2578;51.622;7.046;2023-09-18T08:32:34;10.40;;;9.50;;
5117;SDS011;2578;51.622;7.046;2023-09-18T08:35:01;11.50;;;10.40;;
5117;SDS011;2578;51.622;7.046;2023-09-18T08:37:27;11.43;;;10.43;;
5117;SDS011;2578;51.622;7.046;2023-09-18T08:39:53;11.90;;;10.90;;
5117;SDS011;2578;51.622;7.046;2023-09-18T08:42:18;11.40;;;10.37;;
5117;SDS011;2578;51.622;7.046;2023-09-18T08:44:46;10.90;;;10.00;;
5117;SDS011;2578;51.622;7.046;2023-09-18T08:47:15;12.10;;;11.00;;
5117;SDS011;2578;51.622;7.046;2023-09-18T08:49:42;12.50;;;11.40;;
5117;SDS011;2578;51.622;7.046;2023-09-18T08:52:08;12.63;;;11.57;;
5117;SDS011;2578;51.622;7.046;2023-09-18T08:54:34;12.40;;;11.40;;
5117;SDS011;2578;51.622;7.046;2023-09-18T08:57:00;13.40;;;12.30;;
5117;SDS011;2578;51.622;7.046;2023-09-18T08:59:26;12.40;;;11.40;;
5117;SDS011;2578;51.622;7.046;2023-09-18T09:01:52;13.63;;;12.53;;
5117;SDS011;2578;51.622;7.046;2023-09-18T09:04:18;12.80;;;11.80;;
5117;SDS011;2578;51.622;7.046;2023-09-18T09:06:44;13.17;;;12.10;;
5117;SDS011;2578;51.622;7.046;2023-09-18T09:09:10;13.53;;;12.43;;
5117;SDS011;2578;51.622;7.046;2023-09-18T09:11:38;13.10;;;11.90;;
5117;SDS011;2578;51.622;7.046;2023-09-18T09:14:10;12.50;;;11.50;;
5117;SDS011;2578;51.622;7.046;2023-09-18T09:16:41;12.30;;;11.30;;
5117;SDS011;2578;51.622;7.046;2023-09-18T09:19:11;12.40;;;11.40;;
5117;SDS011;2578;51.622;7.046;2023-09-18T09:21:41;12.87;;;11.80;;
5117;SDS011;2578;51.622;7.046;2023-09-18T09:24:09;12.57;;;11.57;;
5117;SDS011;2578;51.622;7.046;2023-09-18T09:26:39;12.60;;;11.50;;
5117;SDS011;2578;51.622;7.046;2023-09-18T09:29:18;13.67;;;12.47;;
5117;SDS011;2578;51.622;7.046;2023-09-18T09:31:46;14.60;;;13.40;;
5117;SDS011;2578;51.622;7.046;2023-09-18T09:34:12;15.33;;;14.13;;
5117;SDS011;2578;51.622;7.046;2023-09-18T09:36:55;16.10;;;14.80;;
5117;SDS011;2578;51.622;7.046;2023-09-18T09:39:22;15.80;;;14.50;;
5117;SDS011;2578;51.622;7.046;2023-09-18T09:41:53;15.70;;;14.40;;
5117;SDS011;2578;51.622;7.046;2023-09-18T09:44:18;15.40;;;14.20;;
5117;SDS011;2578;51.622;7.046;2023-09-18T09:46:49;14.93;;;13.73;;
5117;SDS011;2578;51.622;7.046;2023-09-18T09:49:16;15.60;;;14.30;;
5117;SDS011;2578;51.622;7.046;2023-09-18T09:51:44;26.90;;;14.33;;
5117;SDS011;2578;51.622;7.046;2023-09-18T09:54:11;15.63;;;14.33;;
5117;SDS011;2578;51.622;7.046;2023-09-18T09:59:19;15.57;;;14.27;;
5117;SDS011;2578;51.622;7.046;2023-09-18T10:01:48;15.17;;;13.97;;
5117;SDS011;2578;51.622;7.046;2023-09-18T10:04:17;15.33;;;13.90;;
5117;SDS011;2578;51.622;7.046;2023-09-18T10:06:44;15.13;;;13.93;;
5117;SDS011;2578;51.622;7.046;2023-09-18T10:09:16;17.10;;;15.60;;
5117;SDS011;2578;51.622;7.046;2023-09-18T10:11:45;15.70;;;14.40;;
5117;SDS011;2578;51.622;7.046;2023-09-18T10:14:20;15.60;;;14.30;;
5117;SDS011;2578;51.622;7.046;2023-09-18T10:16:54;15.90;;;14.60;;
5117;SDS011;2578;51.622;7.046;2023-09-18T10:19:26;16.70;;;15.30;;
5117;SDS011;2578;51.622;7.046;2023-09-18T10:22:15;17.30;;;15.90;;
5117;SDS011;2578;51.622;7.046;2023-09-18T10:27:48;16.43;;;15.10;;
5117;SDS011;2578;51.622;7.046;2023-09-18T10:30:18;17.13;;;15.73;;
5117;SDS011;2578;51.622;7.046;2023-09-18T10:32:45;17.50;;;16.10;;
5117;SDS011;2578;51.622;7.046;2023-09-18T10:35:11;18.20;;;16.70;;
5117;SDS011;2578;51.622;7.046;2023-09-18T10:37:37;19.00;;;17.43;;
5117;SDS011;2578;51.622;7.046;2023-09-18T10:40:06;18.00;;;16.50;;
5117;SDS011;2578;51.622;7.046;2023-09-18T10:42:43;20.33;;;18.63;;
5117;SDS011;2578;51.622;7.046;2023-09-18T10:45:11;19.97;;;18.37;;
5117;SDS011;2578;51.622;7.046;2023-09-18T10:47:41;19.70;;;18.10;;
5117;SDS011;2578;51.622;7.046;2023-09-18T10:50:10;19.57;;;17.90;;
5117;SDS011;2578;51.622;7.046;2023-09-18T10:52:36;19.77;;;18.17;;
5117;SDS011;2578;51.622;7.046;2023-09-18T10:55:10;20.37;;;18.67;;
5117;SDS011;2578;51.622;7.046;2023-09-18T10:57:37;23.03;;;20.87;;
5117;SDS011;2578;51.622;7.046;2023-09-18T11:00:14;97.90;;;20.00;;
5117;SDS011;2578;51.622;7.046;2023-09-18T11:02:41;20.20;;;18.50;;
5117;SDS011;2578;51.622;7.046;2023-09-18T11:05:07;20.93;;;19.23;;
5117;SDS011;2578;51.622;7.046;2023-09-18T11:07:33;21.50;;;19.60;;
5117;SDS011;2578;51.622;7.046;2023-09-18T11:09:58;21.50;;;19.70;;
5117;SDS011;2578;51.622;7.046;2023-09-18T11:12:43;20.83;;;19.10;;
5117;SDS011;2578;51.622;7.046;2023-09-18T11:15:11;22.13;;;20.03;;
5117;SDS011;2578;51.622;7.046;2023-09-18T11:17:58;22.90;;;20.80;;
5117;SDS011;2578;51.622;7.046;2023-09-18T11:20:26;22.00;;;20.07;;
5117;SDS011;2578;51.622;7.046;2023-09-18T11:22:56;21.40;;;19.60;;
5117;SDS011;2578;51.622;7.046;2023-09-18T11:25:37;21.70;;;19.90;;
5117;SDS011;2578;51.622;7.046;2023-09-18T11:28:07;20.80;;;19.00;;
5117;SDS011;2578;51.622;7.046;2023-09-18T11:30:37;21.20;;;19.30;;
5117;SDS011;2578;51.622;7.046;2023-09-18T11:33:12;20.90;;;19.20;;
5117;SDS011;2578;51.622;7.046;2023-09-18T11:35:38;21.03;;;19.20;;
5117;SDS011;2578;51.622;7.046;2023-09-18T11:38:17;21.00;;;19.20;;
5117;SDS011;2578;51.622;7.046;2023-09-18T11:40:43;20.80;;;18.97;;
5117;SDS011;2578;51.622;7.046;2023-09-18T11:45:55;21.07;;;19.23;;
5117;SDS011;2578;51.622;7.046;2023-09-18T11:48:25;20.90;;;19.10;;
5117;SDS011;2578;51.622;7.046;2023-09-18T11:50:57;21.60;;;19.70;;
5117;SDS011;2578;51.622;7.046;2023-09-18T11:53:24;20.70;;;19.00;;
5117;SDS011;2578;51.622;7.046;2023-09-18T11:55:53;21.20;;;19.40;;
5117;SDS011;2578;51.622;7.046;2023-09-18T11:58:18;21.43;;;19.63;;
5117;SDS011;2578;51.622;7.046;2023-09-18T12:00:48;21.33;;;19.53;;
5117;SDS011;2578;51.622;7.046;2023-09-18T12:03:20;21.33;;;19.53;;
5117;SDS011;2578;51.622;7.046;2023-09-18T12:08:22;20.57;;;18.73;;
5117;SDS011;2578;51.622;7.046;2023-09-18T12:10:51;19.00;;;17.40;;
5117;SDS011;2578;51.622;7.046;2023-09-18T12:13:18;18.63;;;17.07;;
5117;SDS011;2578;51.622;7.046;2023-09-18T12:15:44;18.50;;;17.00;;
5117;SDS011;2578;51.622;7.046;2023-09-18T12:18:09;18.37;;;16.90;;
5117;SDS011;2578;51.622;7.046;2023-09-18T12:20:37;19.53;;;17.93;;
5117;SDS011;2578;51.622;7.046;2023-09-18T12:23:03;19.63;;;17.93;;
5117;SDS011;2578;51.622;7.046;2023-09-18T12:25:29;18.90;;;17.30;;
5117;SDS011;2578;51.622;7.046;2023-09-18T12:27:55;19.10;;;17.53;;
5117;SDS011;2578;51.622;7.046;2023-09-18T12:30:21;18.40;;;16.90;;
5117;SDS011;2578;51.622;7.046;2023-09-18T12:32:48;17.83;;;16.40;;
5117;SDS011;2578;51.622;7.046;2023-09-18T12:35:14;18.70;;;17.20;;
5117;SDS011;2578;51.622;7.046;2023-09-18T12:37:40;18.33;;;16.83;;
5117;SDS011;2578;51.622;7.046;2023-09-18T12:40:06;17.80;;;16.37;;
5117;SDS011;2578;51.622;7.046;2023-09-18T12:42:45;19.20;;;17.63;;
5117;SDS011;2578;51.622;7.046;2023-09-18T12:45:11;18.83;;;17.23;;
5117;SDS011;2578;51.622;7.046;2023-09-18T12:47:37;18.10;;;16.70;;
5117;SDS011;2578;51.622;7.046;2023-09-18T12:50:04;18.07;;;16.63;;
5117;SDS011;2578;51.622;7.046;2023-09-18T12:52:35;19.90;;;18.30;;
5117;SDS011;2578;51.622;7.046;2023-09-18T12:55:01;20.20;;;18.50;;
5117;SDS011;2578;51.622;7.046;2023-09-18T12:57:29;21.00;;;19.30;;
5117;SDS011;2578;51.622;7.046;2023-09-18T12:59:55;21.63;;;19.83;;
5117;SDS011;2578;51.622;7.046;2023-09-18T13:02:21;22.43;;;20.60;;
5117;SDS011;2578;51.622;7.046;2023-09-18T13:04:56;22.77;;;20.87;;
5117;SDS011;2578;51.622;7.046;2023-09-18T13:07:22;22.60;;;20.70;;
5117;SDS011;2578;51.622;7.046;2023-09-18T13:10:07;22.33;;;20.43;;
5117;SDS011;2578;51.622;7.046;2023-09-18T13:15:12;22.87;;;20.97;;
5117;SDS011;2578;51.622;7.046;2023-09-18T13:20:09;22.30;;;20.50;;
5117;SDS011;2578;51.622;7.046;2023-09-18T13:22:48;23.00;;;21.00;;
5117;SDS011;2578;51.622;7.046;2023-09-18T13:25:21;23.57;;;21.40;;
5117;SDS011;2578;51.622;7.046;2023-09-18T13:27:52;22.77;;;20.67;;
5117;SDS011;2578;51.622;7.046;2023-09-18T13:30:19;22.10;;;20.20;;
5117;SDS011;2578;51.622;7.046;2023-09-18T13:32:47;21.97;;;19.97;;
5117;SDS011;2578;51.622;7.046;2023-09-18T13:35:13;20.70;;;18.90;;
5117;SDS011;2578;51.622;7.046;2023-09-18T13:37:42;21.10;;;19.30;;
5117;SDS011;2578;51.622;7.046;2023-09-18T13:40:09;20.47;;;18.67;;
5117;SDS011;2578;51.622;7.046;2023-09-18T13:42:35;21.67;;;19.47;;
5117;SDS011;2578;51.622;7.046;2023-09-18T13:45:02;23.13;;;21.23;;
5117;SDS011;2578;51.622;7.046;2023-09-18T13:47:32;21.27;;;19.47;;
5117;SDS011;2578;51.622;7.046;2023-09-18T13:49:59;22.43;;;20.43;;
5117;SDS011;2578;51.622;7.046;2023-09-18T13:52:26;21.30;;;19.50;;
5117;SDS011;2578;51.622;7.046;2023-09-18T13:54:52;21.43;;;19.63;;
5117;SDS011;2578;51.622;7.046;2023-09-18T13:57:18;20.60;;;18.80;;
5117;SDS011;2578;51.622;7.046;2023-09-18T13:59:44;21.17;;;19.37;;
5117;SDS011;2578;51.622;7.046;2023-09-18T14:02:10;22.73;;;20.73;;
5117;SDS011;2578;51.622;7.046;2023-09-18T14:04:36;21.60;;;19.70;;
5117;SDS011;2578;51.622;7.046;2023-09-18T14:07:02;22.40;;;20.40;;
5117;SDS011;2578;51.622;7.046;2023-09-18T14:09:28;22.47;;;20.50;;
5117;SDS011;2578;51.622;7.046;2023-09-18T14:11:54;23.70;;;21.30;;
5117;SDS011;2578;51.622;7.046;2023-09-18T14:14:21;22.50;;;20.60;;
5117;SDS011;2578;51.622;7.046;2023-09-18T14:16:47;22.67;;;20.77;;
5117;SDS011;2578;51.622;7.046;2023-09-18T14:19:13;22.90;;;20.90;;
5117;SDS011;2578;51.622;7.046;2023-09-18T14:21:38;21.90;;;20.10;;
5117;SDS011;2578;51.622;7.046;2023-09-18T14:24:05;23.30;;;21.30;;
5117;SDS011;2578;51.622;7.046;2023-09-18T14:26:31;23.40;;;21.40;;
5117;SDS011;2578;51.622;7.046;2023-09-18T14:28:56;24.93;;;22.83;;
5117;SDS011;2578;51.622;7.046;2023-09-18T14:31:22;23.87;;;21.73;;
5117;SDS011;2578;51.622;7.046;2023-09-18T14:33:48;23.37;;;21.37;;
5117;SDS011;2578;51.622;7.046;2023-09-18T14:36:14;24.80;;;22.30;;
5117;SDS011;2578;51.622;7.046;2023-09-18T14:38:39;23.63;;;21.63;;
5117;SDS011;2578;51.622;7.046;2023-09-18T14:41:06;23.37;;;21.47;;
5117;SDS011;2578;51.622;7.046;2023-09-18T14:43:32;24.00;;;22.00;;
5117;SDS011;2578;51.622;7.046;2023-09-18T14:45:57;23.20;;;21.30;;
5117;SDS011;2578;51.622;7.046;2023-09-18T14:48:23;23.20;;;21.30;;
5117;SDS011;2578;51.622;7.046;2023-09-18T14:50:57;23.33;;;21.33;;
5117;SDS011;2578;51.622;7.046;2023-09-18T14:53:23;23.20;;;21.20;;
5117;SDS011;2578;51.622;7.046;2023-09-18T14:55:49;23.77;;;21.77;;
5117;SDS011;2578;51.622;7.046;2023-09-18T14:58:14;23.20;;;21.20;;
5117;SDS011;2578;51.622;7.046;2023-09-18T15:00:43;24.43;;;22.23;;
5117;SDS011;2578;51.622;7.046;2023-09-18T15:03:09;23.20;;;21.20;;
5117;SDS011;2578;51.622;7.046;2023-09-18T15:05:34;23.30;;;21.30;;
5117;SDS011;2578;51.622;7.046;2023-09-18T15:08:00;23.30;;;21.30;;
5117;SDS011;2578;51.622;7.046;2023-09-18T15:10:26;23.30;;;21.30;;
5117;SDS011;2578;51.622;7.046;2023-09-18T15:12:53;23.17;;;21.17;;
5117;SDS011;2578;51.622;7.046;2023-09-18T15:15:19;23.30;;;21.20;;
5117;SDS011;2578;51.622;7.046;2023-09-18T15:17:46;23.07;;;21.07;;